createdAt,value
2022-09-29T00:00:17.915Z,95.95
2022-09-29T00:00:48.732Z,95.84
2022-09-29T00:01:19.566Z,96.05
2022-09-29T00:01:50.394Z,95.95
2022-09-29T00:02:21.195Z,95.84
2022-09-29T00:02:52.005Z,95.95
2022-09-29T00:03:22.907Z,96.26
2022-09-29T00:03:53.733Z,96.47
2022-09-29T00:04:24.581Z,96.56
2022-09-29T00:04:55.428Z,96.67
2022-09-29T00:05:26.266Z,96.88
2022-09-29T00:05:57.101Z,96.77
2022-09-29T00:06:27.910Z,96.26
2022-09-29T00:06:58.758Z,95.84
2022-09-29T00:07:29.613Z,95.95
2022-09-29T00:08:00.424Z,96.26
2022-09-29T00:08:31.248Z,96.47
2022-09-29T00:09:02.047Z,96.36
2022-09-29T00:09:32.884Z,96.47
2022-09-29T00:10:03.745Z,96.47
2022-09-29T00:10:34.525Z,96.56
2022-09-29T00:11:05.330Z,96.47
2022-09-29T00:11:36.132Z,96.36
2022-09-29T00:12:06.974Z,96.36
2022-09-29T00:12:37.826Z,96.05
2022-09-29T00:13:08.620Z,96.15
2022-09-29T00:13:39.418Z,96.15
2022-09-29T00:14:10.293Z,96.15
2022-09-29T00:14:43.632Z,95.95
2022-09-29T00:15:13.760Z,96.05
2022-09-29T00:15:44.624Z,96.36
2022-09-29T00:16:15.467Z,96.56
2022-09-29T00:16:46.352Z,96.88
2022-09-29T00:17:17.218Z,96.94
2022-09-29T00:18:12.285Z,96.77
2022-09-29T00:18:20.689Z,96.73
2022-09-29T00:18:51.504Z,96.42
2022-09-29T00:19:22.329Z,96.21
2022-09-29T00:19:53.151Z,96.15
2022-09-29T00:20:23.991Z,95.95
2022-09-29T00:20:54.790Z,95.64
2022-09-29T00:21:25.620Z,95.84
2022-09-29T00:21:56.484Z,96.11
2022-09-29T00:22:27.261Z,96.42
2022-09-29T00:22:58.061Z,96.42
2022-09-29T00:23:28.878Z,96.42
2022-09-29T00:23:59.675Z,96.21
2022-09-29T00:24:30.487Z,96.31
2022-09-29T00:25:01.302Z,96.11
2022-09-29T00:25:32.191Z,96.31
2022-09-29T00:26:02.984Z,96.62
2022-09-29T00:26:33.797Z,96.83
2022-09-29T00:27:04.616Z,96.52
2022-09-29T00:27:35.429Z,96.62
2022-09-29T00:28:06.224Z,96.62
2022-09-29T00:28:37.041Z,96.83
2022-09-29T00:29:07.868Z,96.83
2022-09-29T00:29:38.663Z,96.83
2022-09-29T00:30:09.426Z,96.52
2022-09-29T00:30:40.267Z,96.21
2022-09-29T00:31:11.149Z,96.11
2022-09-29T00:31:42.029Z,96.01
2022-09-29T00:32:12.855Z,95.90
2022-09-29T00:32:43.638Z,95.90
2022-09-29T00:33:14.433Z,96.31
2022-09-29T00:33:45.226Z,96.52
2022-09-29T00:34:16.053Z,96.62
2022-09-29T00:34:46.862Z,96.52
2022-09-29T00:35:17.680Z,96.52
2022-09-29T00:35:48.521Z,96.62
2022-09-29T00:36:19.439Z,96.73
2022-09-29T00:36:50.253Z,96.52
2022-09-29T00:37:21.084Z,96.31
2022-09-29T00:37:51.985Z,96.42
2022-09-29T00:38:22.785Z,96.42
2022-09-29T00:38:53.607Z,96.37
2022-09-29T00:39:24.386Z,96.27
2022-09-29T00:39:55.201Z,95.49
2022-09-29T00:40:26.008Z,94.97
2022-09-29T00:40:56.946Z,94.97
2022-09-29T00:41:27.733Z,94.97
2022-09-29T00:41:58.549Z,94.97
2022-09-29T00:42:29.316Z,95.18
2022-09-29T00:43:00.136Z,95.39
2022-09-29T00:43:30.961Z,95.39
2022-09-29T00:44:01.789Z,95.18
2022-09-29T00:44:32.570Z,94.77
2022-09-29T00:45:03.376Z,94.87
2022-09-29T00:45:34.246Z,95.28
2022-09-29T00:46:05.146Z,95.59
2022-09-29T00:46:35.956Z,95.18
2022-09-29T00:47:06.773Z,94.67
2022-09-29T00:47:37.549Z,94.04
2022-09-29T00:48:08.350Z,94.04
2022-09-29T00:48:39.119Z,94.56
2022-09-29T00:49:09.936Z,94.97
2022-09-29T00:49:40.740Z,94.77
2022-09-29T00:50:11.547Z,94.97
2022-09-29T00:50:42.400Z,95.39
2022-09-29T00:51:13.226Z,95.59
2022-09-29T00:51:44.018Z,95.59
2022-09-29T00:52:14.798Z,95.90
2022-09-29T00:52:45.645Z,96.01
2022-09-29T00:53:21.198Z,95.74
2022-09-29T00:53:49.109Z,95.53
2022-09-29T00:54:20.051Z,95.74
2022-09-29T00:54:50.953Z,96.05
2022-09-29T00:55:21.745Z,95.95
2022-09-29T00:55:52.557Z,95.74
2022-09-29T00:56:23.400Z,95.74
2022-09-29T00:56:54.187Z,95.43
2022-09-29T00:57:24.982Z,94.92
2022-09-29T00:57:55.774Z,94.71
2022-09-29T00:58:26.628Z,95.22
2022-09-29T00:58:57.403Z,95.64
2022-09-29T00:59:28.236Z,96.15
2022-09-29T00:59:59.022Z,96.36
2022-09-29T01:00:29.845Z,96.62
2022-09-29T01:01:00.708Z,96.73
2022-09-29T01:01:31.597Z,96.83
2022-09-29T01:02:02.457Z,96.94
2022-09-29T01:02:33.270Z,96.62
2022-09-29T01:03:04.137Z,96.11
2022-09-29T01:03:34.919Z,96.11
2022-09-29T01:04:05.749Z,96.31
2022-09-29T01:04:36.560Z,96.52
2022-09-29T01:05:07.397Z,96.31
2022-09-29T01:05:38.229Z,95.70
2022-09-29T01:06:09.081Z,95.59
2022-09-29T01:06:39.899Z,95.80
2022-09-29T01:07:10.706Z,95.70
2022-09-29T01:07:41.471Z,95.28
2022-09-29T01:08:12.331Z,95.28
2022-09-29T01:08:43.112Z,94.97
2022-09-29T01:09:13.899Z,94.56
2022-09-29T01:09:44.729Z,94.77
2022-09-29T01:10:15.521Z,94.97
2022-09-29T01:10:46.311Z,95.07
2022-09-29T01:11:17.133Z,95.22
2022-09-29T01:11:48.017Z,95.02
2022-09-29T01:12:18.791Z,95.22
2022-09-29T01:12:49.627Z,95.43
2022-09-29T01:13:20.410Z,95.22
2022-09-29T01:13:51.241Z,94.81
2022-09-29T01:14:22.053Z,94.50
2022-09-29T01:14:52.841Z,94.71
2022-09-29T01:15:23.631Z,95.02
2022-09-29T01:15:54.474Z,95.32
2022-09-29T01:16:25.385Z,95.64
2022-09-29T01:16:56.252Z,95.84
2022-09-29T01:17:27.080Z,95.84
2022-09-29T01:17:57.911Z,95.64
2022-09-29T01:18:28.714Z,95.43
2022-09-29T01:18:59.506Z,95.43
2022-09-29T01:19:30.304Z,95.43
2022-09-29T01:20:04.613Z,94.60
2022-09-29T01:20:32.869Z,94.50
2022-09-29T01:21:03.653Z,94.81
2022-09-29T01:21:34.477Z,95.12
2022-09-29T01:22:05.299Z,95.02
2022-09-29T01:22:36.115Z,94.71
2022-09-29T01:23:06.923Z,94.40
2022-09-29T01:23:37.737Z,94.19
2022-09-29T01:24:08.580Z,94.60
2022-09-29T01:24:39.362Z,94.71
2022-09-29T01:25:10.125Z,95.22
2022-09-29T01:25:40.914Z,95.53
2022-09-29T01:26:11.845Z,95.43
2022-09-29T01:26:42.630Z,95.22
2022-09-29T01:27:13.448Z,95.32
2022-09-29T01:27:44.264Z,95.64
2022-09-29T01:28:15.073Z,95.74
2022-09-29T01:28:45.940Z,95.74
2022-09-29T01:29:16.714Z,95.95
2022-09-29T01:29:47.579Z,96.05
2022-09-29T01:30:18.416Z,96.15
2022-09-29T01:30:49.186Z,96.15
2022-09-29T01:31:20.055Z,95.95
2022-09-29T01:31:50.959Z,95.95
2022-09-29T01:32:21.803Z,96.36
2022-09-29T01:32:52.614Z,96.77
2022-09-29T01:33:23.395Z,96.77
2022-09-29T01:33:54.204Z,96.98
2022-09-29T01:34:25.009Z,97.08
2022-09-29T01:34:55.764Z,97.08
2022-09-29T01:35:26.618Z,97.04
2022-09-29T01:35:57.433Z,96.94
2022-09-29T01:36:28.256Z,96.94
2022-09-29T01:36:59.093Z,97.04
2022-09-29T01:37:29.921Z,97.04
2022-09-29T01:38:00.704Z,97.14
2022-09-29T01:38:31.513Z,97.25
2022-09-29T01:39:02.276Z,97.14
2022-09-29T01:39:33.104Z,97.14
2022-09-29T01:40:03.886Z,97.14
2022-09-29T01:40:34.720Z,97.04
2022-09-29T01:41:05.680Z,97.04
2022-09-29T01:41:36.502Z,96.73
2022-09-29T01:42:07.312Z,96.83
2022-09-29T01:42:38.106Z,96.83
2022-09-29T01:43:08.957Z,96.83
2022-09-29T01:43:39.778Z,96.83
2022-09-29T01:44:10.589Z,96.73
2022-09-29T01:44:41.446Z,96.73
2022-09-29T01:45:12.233Z,96.62
2022-09-29T01:45:43.160Z,96.21
2022-09-29T01:46:14.212Z,95.80
2022-09-29T01:46:45.054Z,95.39
2022-09-29T01:47:15.887Z,95.49
2022-09-29T01:47:46.668Z,95.80
2022-09-29T01:48:17.444Z,95.90
2022-09-29T01:48:48.248Z,96.11
2022-09-29T01:49:19.066Z,96.21
2022-09-29T01:49:49.857Z,96.31
2022-09-29T01:50:20.676Z,96.52
2022-09-29T01:50:51.507Z,96.62
2022-09-29T01:51:22.312Z,96.73
2022-09-29T01:51:53.129Z,96.94
2022-09-29T01:52:23.973Z,96.83
2022-09-29T01:52:54.802Z,96.42
2022-09-29T01:53:25.628Z,96.21
2022-09-29T01:53:56.444Z,96.31
2022-09-29T01:54:27.216Z,96.31
2022-09-29T01:54:58.010Z,96.21
2022-09-29T01:55:28.837Z,96.11
2022-09-29T01:55:59.679Z,95.80
2022-09-29T01:56:30.513Z,95.70
2022-09-29T01:57:01.330Z,95.49
2022-09-29T01:57:32.187Z,95.39
2022-09-29T01:58:02.969Z,95.49
2022-09-29T01:58:33.829Z,95.18
2022-09-29T01:59:04.608Z,95.18
2022-09-29T01:59:35.411Z,95.49
2022-09-29T02:00:06.219Z,95.39
2022-09-29T02:00:37.062Z,95.28
2022-09-29T02:01:07.906Z,95.80
2022-09-29T02:07:24.063Z,96.11
2022-09-29T02:07:55.017Z,96.01
2022-09-29T02:08:25.988Z,95.70
2022-09-29T02:08:56.803Z,95.80
2022-09-29T02:09:27.590Z,96.21
2022-09-29T02:09:58.514Z,96.62
2022-09-29T02:10:29.336Z,96.83
2022-09-29T02:11:00.227Z,96.94
2022-09-29T02:11:31.002Z,97.14
2022-09-29T02:12:01.936Z,97.25
2022-09-29T02:12:32.777Z,97.25
2022-09-29T02:13:03.662Z,97.25
2022-09-29T02:13:34.541Z,96.73
2022-09-29T02:14:05.507Z,96.52
2022-09-29T02:14:36.378Z,96.31
2022-09-29T02:15:07.302Z,96.01
2022-09-29T02:15:38.084Z,96.01
2022-09-29T02:16:08.982Z,96.21
2022-09-29T02:16:39.882Z,96.31
2022-09-29T02:17:10.703Z,96.31
2022-09-29T02:17:41.512Z,96.01
2022-09-29T02:18:12.360Z,95.80
2022-09-29T02:18:43.221Z,95.49
2022-09-29T02:19:14.053Z,95.28
2022-09-29T02:19:44.867Z,95.39
2022-09-29T02:20:15.716Z,95.80
2022-09-29T02:20:46.605Z,96.21
2022-09-29T02:21:17.421Z,96.42
2022-09-29T02:21:48.314Z,96.52
2022-09-29T02:22:19.156Z,96.73
2022-09-29T02:22:50.021Z,96.73
2022-09-29T02:23:20.870Z,96.31
2022-09-29T02:23:51.741Z,96.11
2022-09-29T02:24:22.607Z,96.21
2022-09-29T02:24:53.424Z,96.11
2022-09-29T02:25:24.303Z,96.21
2022-09-29T02:25:55.149Z,96.52
2022-09-29T02:26:25.943Z,96.73
2022-09-29T02:26:56.873Z,97.04
2022-09-29T02:27:27.722Z,97.14
2022-09-29T02:27:58.584Z,97.04
2022-09-29T02:28:29.366Z,97.09
2022-09-29T02:29:00.187Z,97.20
2022-09-29T02:29:31.039Z,97.41
2022-09-29T02:30:01.851Z,97.41
2022-09-29T02:30:32.696Z,97.61
2022-09-29T02:31:03.593Z,97.72
2022-09-29T02:31:34.406Z,97.82
2022-09-29T02:32:05.248Z,97.92
2022-09-29T02:32:36.093Z,97.82
2022-09-29T02:33:06.911Z,97.41
2022-09-29T02:33:37.761Z,97.51
2022-09-29T02:34:08.596Z,97.61
2022-09-29T02:34:40.144Z,97.61
2022-09-29T02:35:10.943Z,97.61
2022-09-29T02:35:41.778Z,97.61
2022-09-29T02:36:12.634Z,97.30
2022-09-29T02:36:43.466Z,96.89
2022-09-29T02:37:14.315Z,96.58
2022-09-29T02:37:45.183Z,96.58
2022-09-29T02:38:16.012Z,96.58
2022-09-29T02:38:46.810Z,96.69
2022-09-29T02:39:17.608Z,96.69
2022-09-29T02:39:48.450Z,96.79
2022-09-29T02:40:19.330Z,96.89
2022-09-29T02:40:50.187Z,96.89
2022-09-29T02:41:21.094Z,96.89
2022-09-29T02:41:51.965Z,96.99
2022-09-29T02:42:22.851Z,96.99
2022-09-29T02:42:53.697Z,96.99
2022-09-29T02:43:24.543Z,96.89
2022-09-29T02:43:55.370Z,96.69
2022-09-29T02:44:26.200Z,96.58
2022-09-29T02:44:57.053Z,96.58
2022-09-29T02:45:27.958Z,96.69
2022-09-29T02:45:58.853Z,96.89
2022-09-29T02:46:29.691Z,96.89
2022-09-29T02:47:00.487Z,96.79
2022-09-29T02:47:31.397Z,96.69
2022-09-29T02:48:02.317Z,96.58
2022-09-29T02:48:33.168Z,96.79
2022-09-29T02:49:04.098Z,96.84
2022-09-29T02:49:34.933Z,96.95
2022-09-29T02:50:05.741Z,97.26
2022-09-29T02:50:36.569Z,97.47
2022-09-29T02:51:07.358Z,97.47
2022-09-29T02:51:38.188Z,97.36
2022-09-29T02:52:09.055Z,97.47
2022-09-29T02:52:39.878Z,97.47
2022-09-29T02:53:10.665Z,97.47
2022-09-29T02:53:41.491Z,97.47
2022-09-29T02:54:12.429Z,97.05
2022-09-29T02:54:43.269Z,96.84
2022-09-29T02:55:14.098Z,96.95
2022-09-29T02:55:44.975Z,96.84
2022-09-29T02:56:15.820Z,96.84
2022-09-29T02:56:46.684Z,96.95
2022-09-29T02:57:17.536Z,96.95
2022-09-29T02:57:48.326Z,96.95
2022-09-29T02:58:19.122Z,96.84
2022-09-29T02:58:49.909Z,96.74
2022-09-29T02:59:20.856Z,96.64
2022-09-29T02:59:51.635Z,96.64
2022-09-29T03:00:22.530Z,96.74
2022-09-29T03:00:53.392Z,96.74
2022-09-29T03:01:24.245Z,96.74
2022-09-29T03:01:55.208Z,96.74
2022-09-29T03:02:26.070Z,96.12
2022-09-29T03:02:56.914Z,95.81
2022-09-29T03:03:27.848Z,95.92
2022-09-29T03:04:03.340Z,96.12
2022-09-29T03:04:31.469Z,96.44
2022-09-29T03:05:02.290Z,96.84
2022-09-29T03:05:33.201Z,97.05
2022-09-29T03:06:04.131Z,97.05
2022-09-29T03:06:35.019Z,97.05
2022-09-29T03:07:05.908Z,97.16
2022-09-29T03:07:36.759Z,96.84
2022-09-29T03:08:07.627Z,96.84
2022-09-29T03:08:38.558Z,97.05
2022-09-29T03:09:09.382Z,97.05
2022-09-29T03:09:40.301Z,96.95
2022-09-29T03:10:11.119Z,96.84
2022-09-29T03:10:41.989Z,97.05
2022-09-29T03:11:12.912Z,96.64
2022-09-29T03:11:43.706Z,96.95
2022-09-29T03:12:14.513Z,96.95
2022-09-29T03:12:45.292Z,96.95
2022-09-29T03:13:16.101Z,97.05
2022-09-29T03:13:46.938Z,97.05
2022-09-29T03:14:17.773Z,97.05
2022-09-29T03:14:48.604Z,96.74
2022-09-29T03:15:19.418Z,96.64
2022-09-29T03:15:50.290Z,96.64
2022-09-29T03:16:21.163Z,96.64
2022-09-29T03:16:52.006Z,96.64
2022-09-29T03:17:22.881Z,96.74
2022-09-29T03:17:53.722Z,96.64
2022-09-29T03:18:24.589Z,96.33
2022-09-29T03:18:55.379Z,96.33
2022-09-29T03:19:26.196Z,96.02
2022-09-29T03:19:57.037Z,95.71
2022-09-29T03:20:27.996Z,95.50
2022-09-29T03:20:58.936Z,95.71
2022-09-29T03:21:29.754Z,95.92
2022-09-29T03:22:00.543Z,96.02
2022-09-29T03:22:31.410Z,95.92
2022-09-29T03:23:02.355Z,96.12
2022-09-29T03:23:33.246Z,96.23
2022-09-29T03:24:04.087Z,96.33
2022-09-29T03:24:34.931Z,96.23
2022-09-29T03:25:05.731Z,96.33
2022-09-29T03:25:36.582Z,96.33
2022-09-29T03:26:07.393Z,96.02
2022-09-29T03:26:38.229Z,96.02
2022-09-29T03:27:09.012Z,96.23
2022-09-29T03:27:39.875Z,96.44
2022-09-29T03:28:10.734Z,96.44
2022-09-29T03:28:41.597Z,96.53
2022-09-29T03:29:12.524Z,96.12
2022-09-29T03:29:43.354Z,96.02
2022-09-29T03:30:14.219Z,96.02
2022-09-29T03:30:45.052Z,95.71
2022-09-29T03:31:15.888Z,95.30
2022-09-29T03:31:46.714Z,95.50
2022-09-29T03:32:17.542Z,95.71
2022-09-29T03:32:48.408Z,95.71
2022-09-29T03:33:19.245Z,95.71
2022-09-29T03:33:50.061Z,95.71
2022-09-29T03:34:20.914Z,95.71
2022-09-29T03:34:51.722Z,95.50
2022-09-29T03:35:22.592Z,95.20
2022-09-29T03:35:53.397Z,95.20
2022-09-29T03:36:24.222Z,95.50
2022-09-29T03:36:55.043Z,95.61
2022-09-29T03:37:25.895Z,95.81
2022-09-29T03:37:56.736Z,96.12
2022-09-29T03:38:27.575Z,96.33
2022-09-29T03:38:58.395Z,96.53
2022-09-29T03:39:29.213Z,96.53
2022-09-29T03:40:00.003Z,96.53
2022-09-29T03:40:30.886Z,96.23
2022-09-29T03:41:01.890Z,96.23
2022-09-29T03:41:32.726Z,96.44
2022-09-29T03:42:03.603Z,96.64
2022-09-29T03:42:34.461Z,96.74
2022-09-29T03:43:05.291Z,96.84
2022-09-29T03:43:36.129Z,96.84
2022-09-29T03:44:07.017Z,96.44
2022-09-29T03:44:37.851Z,96.23
2022-09-29T03:45:08.680Z,96.02
2022-09-29T03:45:39.545Z,95.81
2022-09-29T03:46:10.466Z,95.81
2022-09-29T03:46:41.402Z,95.71
2022-09-29T03:47:12.369Z,95.81
2022-09-29T03:47:43.225Z,95.92
2022-09-29T03:48:14.072Z,95.92
2022-09-29T03:48:44.975Z,95.71
2022-09-29T03:49:15.851Z,95.61
2022-09-29T03:49:46.947Z,95.71
2022-09-29T03:50:17.948Z,96.12
2022-09-29T03:50:48.805Z,96.23
2022-09-29T03:51:19.820Z,96.53
2022-09-29T03:51:50.669Z,96.53
2022-09-29T03:52:21.488Z,96.64
2022-09-29T03:52:52.337Z,96.74
2022-09-29T03:53:23.221Z,96.84
2022-09-29T03:53:54.059Z,97.05
2022-09-29T03:54:24.864Z,96.84
2022-09-29T03:54:55.687Z,96.74
2022-09-29T03:55:26.489Z,96.74
2022-09-29T03:55:57.307Z,96.74
2022-09-29T03:56:28.200Z,97.05
2022-09-29T03:56:58.987Z,97.05
2022-09-29T03:57:29.855Z,96.74
2022-09-29T03:58:00.741Z,96.23
2022-09-29T03:58:31.534Z,96.23
2022-09-29T03:59:02.358Z,96.23
2022-09-29T03:59:33.151Z,95.92
2022-09-29T04:00:03.928Z,96.02
2022-09-29T04:00:34.791Z,96.12
2022-09-29T04:01:05.716Z,96.23
2022-09-29T04:01:36.602Z,95.92
2022-09-29T04:02:07.585Z,95.71
2022-09-29T04:02:38.360Z,95.71
2022-09-29T04:03:09.264Z,95.71
2022-09-29T04:03:40.056Z,95.71
2022-09-29T04:04:10.902Z,95.61
2022-09-29T04:04:41.731Z,95.50
2022-09-29T04:05:12.608Z,95.61
2022-09-29T04:05:43.400Z,95.81
2022-09-29T04:06:14.292Z,96.12
2022-09-29T04:06:45.131Z,96.44
2022-09-29T04:07:15.994Z,96.64
2022-09-29T04:07:46.774Z,96.84
2022-09-29T04:08:17.635Z,96.95
2022-09-29T04:08:48.470Z,97.05
2022-09-29T04:09:19.445Z,97.16
2022-09-29T04:09:50.324Z,97.26
2022-09-29T04:10:21.223Z,97.36
2022-09-29T04:10:52.040Z,97.26
2022-09-29T04:11:22.891Z,97.01
2022-09-29T04:11:53.759Z,97.11
2022-09-29T04:12:24.761Z,97.21
2022-09-29T04:12:55.598Z,97.21
2022-09-29T04:13:26.396Z,97.21
2022-09-29T04:13:57.210Z,97.11
2022-09-29T04:14:28.041Z,96.59
2022-09-29T04:14:58.845Z,96.28
2022-09-29T04:15:29.734Z,95.98
2022-09-29T04:16:00.654Z,95.77
2022-09-29T04:16:31.561Z,95.87
2022-09-29T04:17:02.434Z,96.18
2022-09-29T04:17:33.267Z,96.28
2022-09-29T04:18:04.086Z,96.39
2022-09-29T04:18:34.989Z,96.28
2022-09-29T04:19:05.883Z,96.18
2022-09-29T04:19:36.679Z,96.08
2022-09-29T04:20:07.488Z,95.98
2022-09-29T04:20:38.366Z,96.08
2022-09-29T04:21:09.193Z,96.18
2022-09-29T04:21:40.010Z,96.18
2022-09-29T04:22:10.862Z,95.98
2022-09-29T04:22:41.744Z,95.87
2022-09-29T04:23:12.590Z,95.77
2022-09-29T04:23:43.450Z,95.98
2022-09-29T04:24:14.336Z,96.33
2022-09-29T04:24:45.138Z,96.53
2022-09-29T04:25:15.970Z,96.70
2022-09-29T04:25:46.788Z,96.49
2022-09-29T04:26:17.646Z,96.39
2022-09-29T04:26:48.478Z,96.39
2022-09-29T04:27:19.336Z,96.49
2022-09-29T04:27:50.179Z,96.70
2022-09-29T04:28:20.999Z,96.91
2022-09-29T04:28:51.842Z,97.01
2022-09-29T04:29:22.808Z,97.21
2022-09-29T04:29:53.636Z,97.42
2022-09-29T04:30:24.489Z,97.52
2022-09-29T04:30:55.349Z,97.42
2022-09-29T04:31:26.223Z,97.63
2022-09-29T04:31:57.211Z,97.52
2022-09-29T04:32:28.133Z,97.42
2022-09-29T04:32:58.977Z,97.31
2022-09-29T04:33:29.890Z,97.31
2022-09-29T04:34:00.743Z,97.31
2022-09-29T04:34:31.566Z,97.21
2022-09-29T04:35:02.348Z,97.42
2022-09-29T04:35:36.783Z,97.42
2022-09-29T04:36:04.904Z,96.91
2022-09-29T04:36:35.724Z,96.70
2022-09-29T04:37:06.550Z,96.91
2022-09-29T04:37:37.412Z,97.01
2022-09-29T04:38:08.215Z,96.91
2022-09-29T04:38:39.063Z,96.91
2022-09-29T04:39:09.923Z,96.91
2022-09-29T04:39:40.758Z,96.91
2022-09-29T04:40:11.570Z,96.80
2022-09-29T04:40:42.507Z,96.70
2022-09-29T04:41:13.309Z,96.59
2022-09-29T04:41:44.158Z,96.70
2022-09-29T04:42:15.053Z,96.91
2022-09-29T04:42:45.897Z,97.01
2022-09-29T04:43:16.783Z,97.11
2022-09-29T04:43:47.648Z,97.31
2022-09-29T04:44:18.577Z,97.27
2022-09-29T04:44:49.417Z,97.11
2022-09-29T04:45:20.283Z,96.91
2022-09-29T04:45:51.245Z,96.80
2022-09-29T04:46:22.195Z,96.80
2022-09-29T04:46:53.041Z,96.80
2022-09-29T04:47:23.923Z,96.91
2022-09-29T04:47:54.761Z,97.06
2022-09-29T04:48:25.563Z,97.17
2022-09-29T04:48:56.521Z,97.27
2022-09-29T04:49:27.412Z,97.17
2022-09-29T04:49:58.254Z,97.27
2022-09-29T04:50:29.260Z,97.27
2022-09-29T04:51:00.101Z,97.38
2022-09-29T04:51:30.974Z,97.48
2022-09-29T04:52:01.786Z,97.48
2022-09-29T04:52:32.608Z,97.48
2022-09-29T04:53:03.664Z,97.48
2022-09-29T04:53:34.502Z,97.27
2022-09-29T04:54:05.319Z,96.66
2022-09-29T04:54:38.078Z,96.86
2022-09-29T04:55:09.104Z,96.96
2022-09-29T04:55:39.922Z,96.96
2022-09-29T04:56:10.744Z,96.75
2022-09-29T04:56:41.558Z,96.75
2022-09-29T04:57:12.389Z,96.96
2022-09-29T04:57:43.306Z,97.17
2022-09-29T04:58:14.132Z,96.96
2022-09-29T04:58:45.004Z,96.55
2022-09-29T04:59:15.842Z,96.66
2022-09-29T04:59:46.793Z,96.66
2022-09-29T05:00:17.630Z,96.45
2022-09-29T05:00:48.445Z,96.55
2022-09-29T05:01:19.384Z,96.45
2022-09-29T05:01:50.295Z,96.34
2022-09-29T05:02:21.243Z,96.45
2022-09-29T05:02:52.261Z,96.55
2022-09-29T05:03:23.111Z,96.66
2022-09-29T05:03:53.948Z,96.55
2022-09-29T05:04:24.767Z,96.66
2022-09-29T05:04:55.612Z,96.86
2022-09-29T05:05:26.443Z,96.86
2022-09-29T05:05:57.241Z,96.66
2022-09-29T05:06:28.034Z,96.55
2022-09-29T05:06:58.794Z,96.75
2022-09-29T05:07:29.564Z,96.96
2022-09-29T05:08:00.315Z,97.06
2022-09-29T05:08:31.062Z,97.17
2022-09-29T05:09:01.823Z,97.06
2022-09-29T05:09:34.001Z,96.96
2022-09-29T05:10:04.919Z,97.17
2022-09-29T05:10:35.682Z,97.27
2022-09-29T05:11:06.431Z,97.27
2022-09-29T05:11:37.163Z,97.38
2022-09-29T05:12:07.932Z,97.17
2022-09-29T05:12:38.703Z,96.86
2022-09-29T05:13:09.454Z,96.86
2022-09-29T05:13:40.204Z,96.66
2022-09-29T05:14:10.974Z,96.34
2022-09-29T05:14:41.712Z,96.03
2022-09-29T05:15:12.487Z,96.03
2022-09-29T05:15:43.232Z,96.34
2022-09-29T05:16:14.017Z,96.66
2022-09-29T05:16:44.816Z,96.66
2022-09-29T05:17:15.597Z,96.86
2022-09-29T05:17:46.365Z,96.96
2022-09-29T05:18:17.122Z,97.17
2022-09-29T05:18:47.845Z,97.17
2022-09-29T05:19:18.604Z,97.27
2022-09-29T05:19:49.344Z,97.38
2022-09-29T05:20:20.093Z,97.48
2022-09-29T05:21:15.775Z,97.48
2022-09-29T05:21:28.215Z,97.38
2022-09-29T05:21:56.025Z,97.27
2022-09-29T05:22:26.767Z,97.27
2022-09-29T05:23:08.696Z,97.27
2022-09-29T05:23:30.417Z,97.17
2022-09-29T05:24:01.215Z,97.27
2022-09-29T05:24:32.037Z,97.38
2022-09-29T05:25:02.866Z,97.38
2022-09-29T05:25:33.710Z,97.48
2022-09-29T05:26:04.527Z,97.48
2022-09-29T05:26:35.355Z,97.53
2022-09-29T05:27:06.176Z,97.53
2022-09-29T05:27:37.026Z,97.33
2022-09-29T05:28:07.878Z,97.23
2022-09-29T05:28:38.729Z,97.33
2022-09-29T05:29:09.561Z,97.23
2022-09-29T05:29:40.383Z,97.23
2022-09-29T05:30:11.206Z,96.92
2022-09-29T05:30:42.072Z,96.92
2022-09-29T05:31:12.961Z,97.02
2022-09-29T05:31:43.855Z,97.13
2022-09-29T05:32:14.706Z,97.02
2022-09-29T05:32:45.552Z,97.13
2022-09-29T05:33:16.307Z,96.92
2022-09-29T05:33:47.063Z,96.71
2022-09-29T05:34:17.846Z,96.61
2022-09-29T05:34:48.583Z,96.81
2022-09-29T05:35:19.349Z,97.13
2022-09-29T05:35:50.103Z,97.33
2022-09-29T05:36:20.969Z,97.33
2022-09-29T05:36:51.814Z,97.02
2022-09-29T05:37:22.620Z,96.81
2022-09-29T05:37:53.359Z,96.81
2022-09-29T05:38:24.117Z,96.81
2022-09-29T05:38:54.860Z,96.92
2022-09-29T05:39:25.600Z,97.02
2022-09-29T05:39:56.428Z,97.13
2022-09-29T05:40:27.235Z,97.13
2022-09-29T05:40:58.040Z,97.02
2022-09-29T05:41:28.800Z,96.92
2022-09-29T05:41:59.862Z,96.92
2022-09-29T05:42:30.589Z,96.92
2022-09-29T05:43:01.359Z,97.13
2022-09-29T05:43:32.103Z,96.71
2022-09-29T05:44:02.864Z,95.99
2022-09-29T05:44:33.600Z,95.99
2022-09-29T05:45:04.342Z,95.78
2022-09-29T05:45:35.168Z,95.78
2022-09-29T05:46:06.005Z,95.99
2022-09-29T05:46:36.759Z,96.41
2022-09-29T05:47:07.521Z,96.50
2022-09-29T05:47:38.263Z,96.71
2022-09-29T05:48:09.047Z,96.92
2022-09-29T05:48:39.801Z,96.92
2022-09-29T05:49:10.543Z,97.13
2022-09-29T05:49:41.304Z,96.20
2022-09-29T05:50:12.043Z,95.99
2022-09-29T05:50:42.801Z,96.20
2022-09-29T05:51:13.561Z,96.71
2022-09-29T05:51:44.291Z,96.71
2022-09-29T05:52:15.074Z,96.77
2022-09-29T05:52:45.821Z,96.71
2022-09-29T05:53:16.610Z,96.77
2022-09-29T05:53:47.342Z,96.97
2022-09-29T05:54:18.091Z,97.08
2022-09-29T05:54:48.843Z,96.67
2022-09-29T05:55:19.589Z,96.67
2022-09-29T05:55:50.329Z,96.56
2022-09-29T05:56:21.069Z,96.56
2022-09-29T05:56:51.830Z,96.77
2022-09-29T05:57:22.644Z,96.88
2022-09-29T05:57:53.396Z,96.56
2022-09-29T05:58:24.167Z,95.95
2022-09-29T05:58:54.913Z,96.15
2022-09-29T05:59:25.669Z,96.67
2022-09-29T05:59:56.393Z,96.88
2022-09-29T06:00:27.154Z,96.97
2022-09-29T06:00:57.943Z,96.56
2022-09-29T06:01:28.879Z,96.15
2022-09-29T06:01:59.722Z,96.25
2022-09-29T06:02:30.578Z,96.56
2022-09-29T06:03:01.371Z,96.88
2022-09-29T06:03:32.143Z,96.97
2022-09-29T06:04:02.892Z,96.97
2022-09-29T06:04:36.357Z,97.18
2022-09-29T06:05:06.233Z,97.28
2022-09-29T06:05:36.985Z,97.08
2022-09-29T06:06:07.724Z,97.08
2022-09-29T06:06:38.464Z,96.97
2022-09-29T06:07:09.197Z,97.08
2022-09-29T06:07:39.959Z,96.25
2022-09-29T06:08:10.723Z,95.74
2022-09-29T06:08:41.469Z,95.95
2022-09-29T06:09:12.287Z,96.05
2022-09-29T06:09:43.093Z,96.36
2022-09-29T06:10:13.846Z,96.05
2022-09-29T06:10:44.597Z,96.56
2022-09-29T06:11:15.336Z,96.25
2022-09-29T06:11:46.080Z,95.84
2022-09-29T06:12:21.041Z,96.25
2022-09-29T06:12:49.426Z,96.25
2022-09-29T06:13:20.185Z,96.05
2022-09-29T06:13:50.936Z,96.25
2022-09-29T06:14:21.705Z,96.05
2022-09-29T06:14:52.455Z,95.95
2022-09-29T06:15:23.189Z,96.36
2022-09-29T06:15:53.937Z,96.67
2022-09-29T06:16:24.717Z,96.15
2022-09-29T06:16:55.504Z,95.84
2022-09-29T06:17:26.286Z,96.25
2022-09-29T06:17:57.047Z,96.05
2022-09-29T06:18:27.777Z,96.05
2022-09-29T06:18:58.549Z,96.36
2022-09-29T06:19:29.287Z,96.56
2022-09-29T06:20:00.038Z,96.56
2022-09-29T06:20:30.789Z,96.15
2022-09-29T06:21:01.557Z,96.15
2022-09-29T06:21:33.249Z,96.25
2022-09-29T06:22:03.999Z,96.67
2022-09-29T06:22:34.739Z,96.97
2022-09-29T06:23:05.506Z,97.18
2022-09-29T06:23:36.249Z,96.88
2022-09-29T06:24:06.997Z,96.36
2022-09-29T06:24:37.735Z,96.36
2022-09-29T06:25:08.489Z,96.77
2022-09-29T06:25:39.226Z,97.18
2022-09-29T06:26:09.968Z,97.49
2022-09-29T06:26:40.718Z,97.60
2022-09-29T06:27:11.472Z,97.44
2022-09-29T06:27:43.179Z,97.44
2022-09-29T06:28:14.000Z,97.34
2022-09-29T06:28:44.738Z,97.24
2022-09-29T06:29:15.518Z,97.44
2022-09-29T06:29:46.393Z,97.65
2022-09-29T06:30:17.178Z,97.86
2022-09-29T06:30:48.167Z,97.86
2022-09-29T06:31:19.103Z,97.75
2022-09-29T06:31:50.015Z,97.55
2022-09-29T06:32:20.789Z,97.34
2022-09-29T06:32:51.530Z,97.44
2022-09-29T06:33:22.301Z,97.55
2022-09-29T06:33:54.069Z,97.44
2022-09-29T06:34:24.812Z,97.44
2022-09-29T06:34:58.513Z,97.44
2022-09-29T06:35:26.464Z,97.24
2022-09-29T06:35:57.209Z,97.03
2022-09-29T06:36:27.950Z,96.83
2022-09-29T06:36:58.694Z,96.21
2022-09-29T06:37:29.438Z,95.90
2022-09-29T06:38:00.207Z,96.21
2022-09-29T06:38:30.951Z,96.21
2022-09-29T06:39:01.702Z,96.31
2022-09-29T06:39:32.462Z,96.31
2022-09-29T06:40:05.686Z,96.52
2022-09-29T06:40:35.457Z,96.72
2022-09-29T06:41:06.301Z,97.03
2022-09-29T06:41:37.136Z,97.19
2022-09-29T06:42:07.876Z,97.19
2022-09-29T06:42:38.628Z,97.30
2022-09-29T06:43:09.389Z,97.19